Time;durP1;ratioP1;P1;durP2;ratioP2;P2;SDS_P1;SDS_P2;PMS_P1;PMS_P2;Temp;Humidity;BMP_temperature;BMP_pressure;BME280_temperature;BME280_humidity;BME280_pressure;Samples;Min_cycle;Max_cycle;Signal;HPM_P1;HPM_P2
2023/11/02 04:05:14;;;;;;;0.30;0.20;;;9.70;99.90;;;;;;6122363;23;20209;31
2023/11/02 04:08:15;;;;;;;0.30;0.30;;;9.60;99.90;;;;;;4924619;29;20264;-62
2023/11/02 04:10:59;;;;;;;0.30;0.30;;;9.50;99.90;;;;;;4937332;29;20201;-62
2023/11/02 04:13:43;;;;;;;0.30;0.30;;;9.40;99.90;;;;;;4936996;29;20165;-61
2023/11/02 04:16:08;;;;;;;0.40;0.40;;;9.30;99.90;;;;;;4924901;29;20194;-62
2023/11/02 04:18:34;;;;;;;0.33;0.33;;;9.10;99.90;;;;;;4917518;29;20497;-62
2023/11/02 04:20:59;;;;;;;0.30;0.30;;;9.10;99.90;;;;;;4917128;29;20194;-61
2023/11/02 04:23:25;;;;;;;0.30;0.30;;;9.00;99.90;;;;;;4918040;29;20261;-61
2023/11/02 04:25:54;;;;;;;0.30;0.30;;;8.90;99.90;;;;;;4917383;29;20202;-62
2023/11/02 04:28:20;;;;;;;0.30;0.30;;;8.90;99.90;;;;;;4917712;29;20668;-61
2023/11/02 04:30:47;;;;;;;0.30;0.30;;;8.80;99.90;;;;;;4917401;29;20198;-62
2023/11/02 04:33:13;;;;;;;0.30;0.30;;;8.80;99.90;;;;;;4917483;29;20694;-61
2023/11/02 04:35:40;;;;;;;0.30;0.30;;;8.70;99.90;;;;;;4915647;29;20208;-62
2023/11/02 04:38:07;;;;;;;0.30;0.30;;;8.70;99.90;;;;;;4916702;29;20189;-61
2023/11/02 04:40:33;;;;;;;0.30;0.20;;;8.80;99.90;;;;;;4917835;29;20181;-61
2023/11/02 04:42:59;;;;;;;0.30;0.30;;;8.70;99.90;;;;;;4917579;29;20185;-60
2023/11/02 04:45:26;;;;;;;0.30;0.25;;;8.80;99.90;;;;;;4916878;29;20805;-61
2023/11/02 04:47:52;;;;;;;0.30;0.30;;;8.80;99.90;;;;;;4917542;29;20197;-61
2023/11/02 04:50:20;;;;;;;0.30;0.30;;;8.80;99.90;;;;;;4917615;29;20532;-61
2023/11/02 04:52:46;;;;;;;0.30;0.30;;;8.80;99.90;;;;;;4917626;29;20240;-61
2023/11/02 04:55:12;;;;;;;0.32;0.32;;;8.80;99.90;;;;;;4916893;29;20534;-61
2023/11/02 04:57:38;;;;;;;0.35;0.35;;;8.80;99.90;;;;;;4917265;29;20182;-61
2023/11/02 05:00:04;;;;;;;0.30;0.30;;;8.80;99.90;;;;;;4917386;29;20502;-61
2023/11/02 05:02:30;;;;;;;0.30;0.30;;;8.90;99.90;;;;;;4917431;29;20174;-61
2023/11/02 05:04:56;;;;;;;0.30;0.30;;;8.90;99.90;;;;;;4916877;29;20724;-61
2023/11/02 05:07:22;;;;;;;0.30;0.20;;;8.90;99.90;;;;;;4916750;29;20197;-62
2023/11/02 05:09:48;;;;;;;0.50;0.40;;;9.00;99.90;;;;;;4917574;29;20170;-61
2023/11/02 05:12:13;;;;;;;0.30;0.30;;;9.00;99.90;;;;;;4917111;29;20815;-62
2023/11/02 05:14:39;;;;;;;0.37;0.37;;;9.00;99.90;;;;;;4916647;29;20201;-62
2023/11/02 05:17:05;;;;;;;0.30;0.30;;;9.10;99.90;;;;;;4917310;29;20582;-62
2023/11/02 05:19:31;;;;;;;0.30;0.30;;;9.10;99.90;;;;;;4917019;29;20182;-61
2023/11/02 05:21:56;;;;;;;0.30;0.30;;;9.20;99.90;;;;;;4917238;29;20186;-61
2023/11/02 05:24:22;;;;;;;0.30;0.30;;;9.20;99.90;;;;;;4916869;29;20225;-61
2023/11/02 05:26:48;;;;;;;0.30;0.30;;;9.30;99.90;;;;;;4915667;29;20217;-62
2023/11/02 05:29:13;;;;;;;0.30;0.30;;;9.40;99.90;;;;;;4917688;29;20210;-62
2023/11/02 05:31:39;;;;;;;0.30;0.20;;;9.40;99.90;;;;;;4917146;29;20625;-62
2023/11/02 05:34:04;;;;;;;0.30;0.20;;;9.40;99.90;;;;;;4899949;29;20181;-62
2023/11/02 05:36:30;;;;;;;0.30;0.20;;;9.40;99.90;;;;;;4916929;29;20243;-61
2023/11/02 05:38:56;;;;;;;0.30;0.30;;;9.50;99.90;;;;;;4916883;29;20185;-63
2023/11/02 05:41:22;;;;;;;0.30;0.30;;;9.40;99.90;;;;;;4917601;29;20433;-61
2023/11/02 05:43:48;;;;;;;0.30;0.27;;;9.50;99.90;;;;;;4916883;29;20245;-64
2023/11/02 05:46:13;;;;;;;0.30;0.30;;;9.50;99.90;;;;;;4916744;29;20434;-62
2023/11/02 05:48:39;;;;;;;0.57;0.43;;;9.60;99.90;;;;;;4916818;29;20194;-62
2023/11/02 05:51:05;;;;;;;0.30;0.30;;;9.70;99.90;;;;;;4915643;29;20712;-61
2023/11/02 05:53:31;;;;;;;0.30;0.30;;;9.70;99.90;;;;;;4906282;29;20197;-62
2023/11/02 05:55:56;;;;;;;0.30;0.30;;;9.70;99.90;;;;;;4898387;29;20196;-63
2023/11/02 05:58:22;;;;;;;0.30;0.30;;;9.70;99.90;;;;;;4900072;29;20175;-61
2023/11/02 06:00:48;;;;;;;0.30;0.30;;;9.80;99.90;;;;;;4900380;29;20178;-61
2023/11/02 06:03:14;;;;;;;0.30;0.20;;;9.80;99.90;;;;;;4899748;29;20175;-63
2023/11/02 06:05:39;;;;;;;0.30;0.30;;;9.90;99.90;;;;;;4910832;29;20213;-61
2023/11/02 06:08:05;;;;;;;0.30;0.30;;;10.00;99.90;;;;;;4917421;29;20288;-62
2023/11/02 06:10:31;;;;;;;0.30;0.20;;;10.00;99.90;;;;;;4917494;29;20644;-62
2023/11/02 06:12:57;;;;;;;0.30;0.20;;;10.10;99.90;;;;;;4917328;29;20182;-62
2023/11/02 06:15:22;;;;;;;0.30;0.30;;;10.20;99.90;;;;;;4916554;29;20278;-62
2023/11/02 06:17:48;;;;;;;0.30;0.30;;;10.30;99.90;;;;;;4916927;29;20221;-64
2023/11/02 06:20:14;;;;;;;0.30;0.30;;;10.30;99.90;;;;;;4917620;29;20186;-63
2023/11/02 06:22:40;;;;;;;0.30;0.20;;;10.40;99.90;;;;;;4919307;29;20267;-62
2023/11/02 06:25:06;;;;;;;0.30;0.30;;;10.50;99.90;;;;;;4918382;29;20207;-61
2023/11/02 06:27:32;;;;;;;0.30;0.30;;;10.50;99.90;;;;;;4920106;29;20186;-62
2023/11/02 06:29:57;;;;;;;0.87;0.87;;;10.50;99.90;;;;;;4920284;29;20430;-61
2023/11/02 06:32:23;;;;;;;0.30;0.30;;;10.50;99.90;;;;;;4906587;29;20507;-63
2023/11/02 06:34:48;;;;;;;0.30;0.30;;;10.50;99.90;;;;;;4917730;29;20183;-62
2023/11/02 06:37:18;;;;;;;0.30;0.30;;;10.50;99.90;;;;;;4919776;29;20254;-62
2023/11/02 06:39:44;;;;;;;0.30;0.28;;;10.40;99.90;;;;;;4920054;29;20183;-63
2023/11/02 06:42:10;;;;;;;0.30;0.30;;;10.30;99.90;;;;;;4919683;29;20184;-64
2023/11/02 06:44:39;;;;;;;0.40;0.40;;;10.20;99.90;;;;;;4902497;29;20184;-63
2023/11/02 06:47:05;;;;;;;0.30;0.30;;;10.20;99.90;;;;;;4919617;29;20637;-62
2023/11/02 06:49:30;;;;;;;0.30;0.30;;;10.10;99.90;;;;;;4919309;29;20208;-63
2023/11/02 06:51:56;;;;;;;0.30;0.30;;;10.10;99.90;;;;;;4920290;29;20637;-63
2023/11/02 06:54:22;;;;;;;0.30;0.30;;;10.00;99.90;;;;;;4919464;29;20185;-62
2023/11/02 06:56:48;;;;;;;0.30;0.30;;;10.00;99.90;;;;;;4919613;29;20189;-61
2023/11/02 06:59:14;;;;;;;0.30;0.30;;;10.00;99.90;;;;;;4919799;29;20197;-61
2023/11/02 07:01:41;;;;;;;0.37;0.37;;;10.00;99.90;;;;;;4918980;29;20504;-61
2023/11/02 07:04:06;;;;;;;0.30;0.30;;;9.90;99.90;;;;;;4918405;29;20429;-61
2023/11/02 07:06:32;;;;;;;0.30;0.30;;;9.80;99.90;;;;;;4919254;29;20214;-60
2023/11/02 07:08:57;;;;;;;0.30;0.30;;;9.80;99.90;;;;;;4919551;29;20720;-61
2023/11/02 07:11:23;;;;;;;0.30;0.30;;;9.80;99.90;;;;;;4918454;29;20179;-63
2023/11/02 07:13:50;;;;;;;0.30;0.20;;;9.70;99.90;;;;;;4918110;29;20230;-62
2023/11/02 07:16:16;;;;;;;0.30;0.20;;;9.70;99.90;;;;;;4901770;29;20248;-60
2023/11/02 07:18:41;;;;;;;0.30;0.30;;;9.60;99.90;;;;;;4901887;29;20593;-61
2023/11/02 07:21:07;;;;;;;0.30;0.30;;;9.60;99.90;;;;;;4918919;29;20257;-61
2023/11/02 07:23:32;;;;;;;0.30;0.20;;;9.60;99.90;;;;;;4918577;29;20174;-62
2023/11/02 07:25:58;;;;;;;0.30;0.30;;;9.60;99.90;;;;;;4917516;29;20201;-60
2023/11/02 07:28:24;;;;;;;0.30;0.30;;;9.50;99.90;;;;;;4914961;29;20286;-60
2023/11/02 07:30:49;;;;;;;0.30;0.30;;;9.50;99.90;;;;;;4899720;29;20186;-60
2023/11/02 07:33:15;;;;;;;0.30;0.30;;;9.50;99.90;;;;;;4913680;29;20177;-62
2023/11/02 07:35:41;;;;;;;0.30;0.20;;;9.50;99.90;;;;;;4917621;29;20770;-60
2023/11/02 07:38:06;;;;;;;0.30;0.30;;;9.50;99.90;;;;;;4917624;29;20186;-60
2023/11/02 07:40:32;;;;;;;0.30;0.30;;;9.50;99.90;;;;;;4899921;29;20199;-61
2023/11/02 07:42:57;;;;;;;0.30;0.30;;;9.40;99.90;;;;;;4899757;29;20190;-61
2023/11/02 07:45:24;;;;;;;0.30;0.30;;;9.40;99.90;;;;;;4899088;29;20676;-63
2023/11/02 07:47:50;;;;;;;0.30;0.30;;;9.30;99.90;;;;;;4899650;29;20202;-62
2023/11/02 07:50:15;;;;;;;0.30;0.27;;;9.30;99.90;;;;;;4899984;29;20306;-62
2023/11/02 07:52:41;;;;;;;0.30;0.30;;;9.30;99.90;;;;;;4918614;29;20174;-61
2023/11/02 07:55:09;;;;;;;0.30;0.30;;;9.30;99.90;;;;;;4918021;29;20580;-61
2023/11/02 07:57:34;;;;;;;0.30;0.30;;;9.30;99.90;;;;;;4918406;29;20163;-61
2023/11/02 08:00:00;;;;;;;0.30;0.27;;;9.30;99.90;;;;;;4918297;29;20182;-62
2023/11/02 08:02:26;;;;;;;0.30;0.30;;;9.30;99.90;;;;;;4917223;29;20174;-64
2023/11/02 08:04:51;;;;;;;0.30;0.30;;;9.30;99.90;;;;;;4917764;29;20230;-61
2023/11/02 08:07:17;;;;;;;0.40;0.40;;;9.30;99.90;;;;;;4917422;29;20609;-62
2023/11/02 08:09:43;;;;;;;0.30;0.30;;;9.30;99.90;;;;;;4918082;29;20599;-62
2023/11/02 08:12:10;;;;;;;0.30;0.30;;;9.30;99.90;;;;;;4911676;29;20175;-63
2023/11/02 08:14:36;;;;;;;0.30;0.30;;;9.30;99.90;;;;;;4914597;29;20717;-63
2023/11/02 08:17:03;;;;;;;0.30;0.20;;;9.30;99.90;;;;;;4917408;29;20225;-62
2023/11/02 08:19:29;;;;;;;0.30;0.20;;;9.40;99.90;;;;;;4917818;29;20178;-61
2023/11/02 08:21:55;;;;;;;0.30;0.30;;;9.40;99.90;;;;;;4917413;29;20181;-62
2023/11/02 08:24:21;;;;;;;0.30;0.30;;;9.40;99.90;;;;;;4917128;29;20653;-61
2023/11/02 08:26:47;;;;;;;0.30;0.30;;;9.40;99.90;;;;;;4916570;29;20708;-61
2023/11/02 08:29:14;;;;;;;0.30;0.20;;;9.40;99.90;;;;;;4910157;29;20282;-60
2023/11/02 08:31:39;;;;;;;0.37;0.37;;;9.50;99.90;;;;;;4903272;29;20673;-61
2023/11/02 08:34:05;;;;;;;0.30;0.30;;;9.50;99.90;;;;;;4916228;29;20181;-62
2023/11/02 08:36:31;;;;;;;0.30;0.30;;;9.50;99.90;;;;;;4917204;29;20228;-60
2023/11/02 08:38:57;;;;;;;0.40;0.40;;;9.60;99.90;;;;;;4917538;29;20410;-62
2023/11/02 08:41:24;;;;;;;0.30;0.30;;;9.60;99.90;;;;;;4917659;29;20402;-62
2023/11/02 08:43:50;;;;;;;0.30;0.30;;;9.70;99.90;;;;;;4916589;29;20455;-61
2023/11/02 08:46:24;;;;;;;0.30;0.30;;;9.70;99.90;;;;;;4917152;29;20202;-62
2023/11/02 08:48:52;;;;;;;0.30;0.30;;;9.70;99.90;;;;;;4916789;29;20217;-62
2023/11/02 08:51:19;;;;;;;0.68;0.65;;;9.70;99.90;;;;;;4916981;29;20294;-62
2023/11/02 08:53:45;;;;;;;0.30;0.20;;;9.80;99.90;;;;;;4899698;29;20225;-62
2023/11/02 08:56:12;;;;;;;0.30;0.30;;;9.80;99.90;;;;;;4916226;29;20206;-62
2023/11/02 08:58:44;;;;;;;0.30;0.30;;;9.80;99.90;;;;;;4916551;29;20702;-62
2023/11/02 09:01:11;;;;;;;0.30;0.30;;;9.90;99.90;;;;;;4916986;29;20596;-63
2023/11/02 09:03:38;;;;;;;0.30;0.30;;;10.00;99.90;;;;;;4917327;29;20174;-63
2023/11/02 09:06:05;;;;;;;0.30;0.30;;;10.00;99.90;;;;;;4916162;29;20195;-63
2023/11/02 09:08:32;;;;;;;0.30;0.30;;;10.10;99.90;;;;;;4915413;29;20237;-66
2023/11/02 09:10:57;;;;;;;0.30;0.28;;;10.10;99.90;;;;;;4899329;29;20684;-63
2023/11/02 09:13:23;;;;;;;0.30;0.20;;;10.10;99.90;;;;;;4916629;29;20182;-63
2023/11/02 09:15:48;;;;;;;0.40;0.40;;;10.20;99.90;;;;;;4916371;29;20213;-63
2023/11/02 09:18:14;;;;;;;0.30;0.20;;;10.20;99.90;;;;;;4917489;29;20182;-64
2023/11/02 09:20:40;;;;;;;0.30;0.30;;;10.20;99.90;;;;;;4915718;29;20186;-63
2023/11/02 09:23:05;;;;;;;0.30;0.30;;;10.30;99.90;;;;;;4915095;29;20593;-64
2023/11/02 09:25:34;;;;;;;0.30;0.30;;;10.40;99.90;;;;;;4915516;29;20206;-65
2023/11/02 09:28:00;;;;;;;0.30;0.30;;;10.40;99.90;;;;;;4897694;29;20222;-65
2023/11/02 09:30:25;;;;;;;0.30;0.30;;;10.50;99.90;;;;;;4915051;29;20696;-64
2023/11/02 09:32:51;;;;;;;0.30;0.30;;;10.50;99.90;;;;;;4914929;29;20196;-64
2023/11/02 09:35:17;;;;;;;0.30;0.27;;;10.40;99.90;;;;;;4914635;29;20231;-64
2023/11/02 09:37:42;;;;;;;0.30;0.20;;;10.40;99.90;;;;;;4914671;29;20250;-65
2023/11/02 09:40:10;;;;;;;0.30;0.20;;;10.40;99.90;;;;;;4914885;29;20701;-64
2023/11/02 09:42:36;;;;;;;0.30;0.30;;;10.40;99.90;;;;;;4899139;29;20319;-63
2023/11/02 09:45:06;;;;;;;0.30;0.20;;;10.40;99.90;;;;;;4916333;29;20249;-63
2023/11/02 09:47:32;;;;;;;0.30;0.30;;;10.30;99.90;;;;;;4916842;29;20509;-63
2023/11/02 09:49:58;;;;;;;0.30;0.20;;;10.30;99.90;;;;;;4899557;29;20230;-64
2023/11/02 09:52:24;;;;;;;0.33;0.33;;;10.40;99.90;;;;;;4916667;29;20597;-63
2023/11/02 09:54:50;;;;;;;4.38;1.65;;;10.40;99.90;;;;;;4917813;29;20541;-63
2023/11/02 09:57:17;;;;;;;0.30;0.30;;;10.40;99.90;;;;;;4920621;29;20171;-63
2023/11/02 09:59:44;;;;;;;0.30;0.30;;;10.40;99.90;;;;;;4919682;29;20587;-62
2023/11/02 10:02:12;;;;;;;0.30;0.30;;;10.50;99.90;;;;;;4920519;29;20525;-64
2023/11/02 10:04:38;;;;;;;0.30;0.30;;;10.50;99.90;;;;;;4920087;29;20634;-63
2023/11/02 10:07:05;;;;;;;0.30;0.30;;;10.60;99.90;;;;;;4919837;29;20218;-62
2023/11/02 10:09:31;;;;;;;0.30;0.30;;;10.70;99.90;;;;;;4919784;29;20236;-64
2023/11/02 10:11:57;;;;;;;0.30;0.20;;;10.70;99.90;;;;;;4920309;29;20233;-63
2023/11/02 10:14:23;;;;;;;0.30;0.20;;;10.70;99.90;;;;;;4919715;29;20182;-63
2023/11/02 10:16:49;;;;;;;0.30;0.30;;;10.80;99.90;;;;;;4903589;29;20455;-62
2023/11/02 10:19:15;;;;;;;0.30;0.30;;;10.80;99.90;;;;;;4919669;29;20418;-64
2023/11/02 10:21:40;;;;;;;0.30;0.30;;;11.00;99.90;;;;;;4920176;29;20183;-63
2023/11/02 10:24:06;;;;;;;0.30;0.30;;;11.00;99.90;;;;;;4919735;29;20666;-63
2023/11/02 10:26:34;;;;;;;0.30;0.30;;;11.10;99.90;;;;;;4919831;29;20215;-62
2023/11/02 10:29:02;;;;;;;0.30;0.30;;;11.10;99.90;;;;;;4919323;29;20265;-64
2023/11/02 10:31:30;;;;;;;0.30;0.25;;;11.20;99.90;;;;;;4902930;29;20172;-62
2023/11/02 10:34:05;;;;;;;0.30;0.20;;;11.20;99.90;;;;;;4919297;29;20249;-63
2023/11/02 10:36:32;;;;;;;0.30;0.30;;;11.30;99.90;;;;;;4919316;29;20809;-63
2023/11/02 10:38:58;;;;;;;0.30;0.30;;;11.30;99.90;;;;;;4919337;29;20190;-63
2023/11/02 10:41:26;;;;;;;0.30;0.30;;;11.40;99.90;;;;;;4908733;29;20651;-63
2023/11/02 10:43:54;;;;;;;0.30;0.20;;;11.40;99.90;;;;;;4901438;29;20408;-64
2023/11/02 10:46:23;;;;;;;0.30;0.20;;;11.40;99.90;;;;;;4919475;29;20203;-63
2023/11/02 10:48:53;;;;;;;0.30;0.30;;;11.50;99.90;;;;;;4919562;29;20199;-63
2023/11/02 10:51:24;;;;;;;0.30;0.30;;;11.50;99.90;;;;;;4919073;29;20186;-63
2023/11/02 10:54:02;;;;;;;0.30;0.30;;;11.50;99.90;;;;;;4919333;29;20230;-63
2023/11/02 10:56:41;;;;;;;0.30;0.28;;;11.50;99.90;;;;;;4919263;29;20405;-64
2023/11/02 10:59:09;;;;;;;0.30;0.20;;;11.50;99.90;;;;;;4918278;29;20190;-63
2023/11/02 11:01:36;;;;;;;0.30;0.20;;;11.60;99.90;;;;;;4918433;29;20417;-65
2023/11/02 11:04:03;;;;;;;0.30;0.30;;;11.60;99.90;;;;;;4918680;29;20182;-63
2023/11/02 11:06:30;;;;;;;0.30;0.20;;;11.70;99.90;;;;;;4916893;29;20463;-63
2023/11/02 11:08:57;;;;;;;0.30;0.20;;;11.60;99.90;;;;;;4919171;29;20325;-63
2023/11/02 11:11:24;;;;;;;0.30;0.20;;;11.70;99.90;;;;;;4919193;29;20440;-63
2023/11/02 11:13:52;;;;;;;0.30;0.30;;;11.70;99.90;;;;;;4919131;29;20442;-64
2023/11/02 11:16:19;;;;;;;0.30;0.30;;;11.70;99.90;;;;;;4918229;29;20815;-65
2023/11/02 11:18:47;;;;;;;0.30;0.20;;;11.70;99.90;;;;;;4918626;29;20419;-65
2023/11/02 11:21:16;;;;;;;0.30;0.30;;;11.70;99.90;;;;;;4919203;29;21000;-64
2023/11/02 11:23:45;;;;;;;0.47;0.37;;;11.70;99.90;;;;;;4918327;29;20267;-64
2023/11/02 11:26:12;;;;;;;0.30;0.20;;;11.70;99.90;;;;;;4900622;29;20469;-64
2023/11/02 11:28:38;;;;;;;0.30;0.20;;;11.70;99.90;;;;;;4918915;29;20458;-63
2023/11/02 11:31:10;;;;;;;0.30;0.20;;;11.80;99.90;;;;;;4918091;29;20433;-65
2023/11/02 11:33:46;;;;;;;0.30;0.20;;;11.80;99.90;;;;;;4918521;29;20432;-63
2023/11/02 11:36:22;;;;;;;0.30;0.30;;;11.80;99.90;;;;;;4918317;29;20418;-62
2023/11/02 11:38:49;;;;;;;0.30;0.20;;;11.80;99.90;;;;;;4918467;29;20428;-66
2023/11/02 11:41:39;;;;;;;0.30;0.20;;;11.80;99.90;;;;;;4918718;29;20420;-68
2023/11/02 11:44:05;;;;;;;0.30;0.30;;;11.80;99.90;;;;;;4917867;29;20185;-62
2023/11/02 11:46:45;;;;;;;0.30;0.20;;;11.80;99.90;;;;;;4918138;29;20433;-65
2023/11/02 11:49:43;;;;;;;0.30;0.20;;;11.70;99.90;;;;;;4918281;29;20815;-64
2023/11/02 11:52:24;;;;;;;0.30;0.30;;;11.70;99.90;;;;;;4918145;29;20800;-64
2023/11/02 11:54:50;;;;;;;0.30;0.20;;;11.70;99.90;;;;;;4917597;29;20417;-63
2023/11/02 11:57:52;;;;;;;0.30;0.20;;;11.60;99.90;;;;;;4918392;29;20409;-62
2023/11/02 12:00:18;;;;;;;0.30;0.20;;;11.60;99.90;;;;;;4900301;29;21028;-64
2023/11/02 12:02:44;;;;;;;0.30;0.20;;;11.60;99.90;;;;;;4918253;29;20420;-62
2023/11/02 12:05:10;;;;;;;0.30;0.30;;;11.60;99.90;;;;;;4917177;29;20427;-62
2023/11/02 12:07:38;;;;;;;0.30;0.30;;;11.70;99.90;;;;;;4916780;29;20453;-62
2023/11/02 12:10:05;;;;;;;0.30;0.20;;;11.80;99.90;;;;;;4917836;29;20413;-62
2023/11/02 12:12:31;;;;;;;0.30;0.30;;;11.80;99.90;;;;;;4916520;29;20432;-64
2023/11/02 12:15:18;;;;;;;0.30;0.20;;;11.80;99.90;;;;;;4900062;29;20458;-63
2023/11/02 12:17:53;;;;;;;0.30;0.20;;;11.80;99.90;;;;;;4916926;29;20421;-63
2023/11/02 12:20:35;;;;;;;0.30;0.20;;;11.80;99.90;;;;;;4917634;29;20182;-65
2023/11/02 12:23:01;;;;;;;0.30;0.20;;;11.70;99.90;;;;;;4917212;29;20948;-63
2023/11/02 12:25:26;;;;;;;0.30;0.30;;;11.70;99.90;;;;;;4917079;29;20208;-61
2023/11/02 12:27:56;;;;;;;0.30;0.27;;;11.70;99.90;;;;;;4917184;29;20635;-62
2023/11/02 12:30:22;;;;;;;0.30;0.30;;;11.70;99.90;;;;;;4916604;29;20583;-64
2023/11/02 12:32:48;;;;;;;0.30;0.30;;;11.70;99.90;;;;;;4916576;29;20234;-65
2023/11/02 12:35:21;;;;;;;0.30;0.27;;;11.70;99.90;;;;;;4916882;29;20519;-63
2023/11/02 12:37:58;;;;;;;0.30;0.30;;;11.70;99.90;;;;;;4917419;29;20462;-69
2023/11/02 12:40:24;;;;;;;0.30;0.30;;;11.70;99.90;;;;;;4916975;29;20405;-62
2023/11/02 12:42:50;;;;;;;0.30;0.30;;;11.70;99.90;;;;;;4899735;29;20465;-61
2023/11/02 12:45:23;;;;;;;0.30;0.20;;;11.70;99.90;;;;;;4916499;29;20194;-64
2023/11/02 12:47:48;;;;;;;0.30;0.20;;;11.60;99.90;;;;;;4916106;29;20178;-62
2023/11/02 12:50:32;;;;;;;0.30;0.30;;;11.60;99.90;;;;;;4916677;29;20186;-63
2023/11/02 12:52:58;;;;;;;0.30;0.30;;;11.50;99.90;;;;;;4917382;29;20262;-63
2023/11/02 12:55:27;;;;;;;0.30;0.30;;;11.50;99.90;;;;;;4916942;29;20215;-62
2023/11/02 12:57:52;;;;;;;0.30;0.30;;;11.50;99.90;;;;;;4916529;29;20402;-62
2023/11/02 13:00:18;;;;;;;0.30;0.30;;;11.40;99.90;;;;;;4916650;29;20183;-64
2023/11/02 13:02:46;;;;;;;0.30;0.20;;;11.40;99.90;;;;;;4915714;29;20229;-64
2023/11/02 13:05:18;;;;;;;0.30;0.30;;;11.40;99.90;;;;;;4916782;29;20330;-63
2023/11/02 13:07:44;;;;;;;0.30;0.30;;;11.40;99.90;;;;;;4914664;29;20203;-66
2023/11/02 13:10:16;;;;;;;0.30;0.30;;;11.40;99.90;;;;;;4898132;29;20528;-65
2023/11/02 13:12:44;;;;;;;0.30;0.20;;;11.40;99.90;;;;;;4914736;29;20176;-64
2023/11/02 13:15:11;;;;;;;0.30;0.30;;;11.40;99.90;;;;;;4905139;29;20607;-66
2023/11/02 13:17:46;;;;;;;0.30;0.20;;;11.40;99.90;;;;;;4898876;29;20392;-66
2023/11/02 13:20:14;;;;;;;0.52;0.50;;;11.40;99.90;;;;;;4914937;29;20179;-64
2023/11/02 13:22:43;;;;;;;0.30;0.20;;;11.40;99.90;;;;;;4916812;29;20175;-64
2023/11/02 13:25:10;;;;;;;0.30;0.30;;;11.50;99.90;;;;;;4916347;29;20204;-66
2023/11/02 13:27:35;;;;;;;0.30;0.28;;;11.50;99.90;;;;;;4917155;29;20643;-63
2023/11/02 13:30:02;;;;;;;0.30;0.20;;;11.50;99.90;;;;;;4919391;29;20209;-61
2023/11/02 13:32:29;;;;;;;0.30;0.30;;;11.60;99.90;;;;;;4920126;29;20180;-68
2023/11/02 13:34:55;;;;;;;0.30;0.20;;;11.60;99.90;;;;;;4920398;29;20178;-67
2023/11/02 13:37:20;;;;;;;0.30;0.20;;;11.60;99.90;;;;;;4919322;29;20270;-68
2023/11/02 13:39:46;;;;;;;0.30;0.20;;;11.70;99.90;;;;;;4920251;29;20180;-73
2023/11/02 13:42:12;;;;;;;0.30;0.20;;;11.70;99.90;;;;;;4920778;29;20181;-68
2023/11/02 13:44:41;;;;;;;0.30;0.20;;;11.80;99.90;;;;;;4920144;29;20184;-66
2023/11/02 13:47:07;;;;;;;0.30;0.30;;;11.80;99.90;;;;;;4919884;29;20473;-69
2023/11/02 13:49:34;;;;;;;0.30;0.30;;;11.80;99.90;;;;;;4919996;29;20495;-68
2023/11/02 13:52:00;;;;;;;0.30;0.20;;;11.90;99.90;;;;;;4920718;29;20184;-67
2023/11/02 13:54:25;;;;;;;0.30;0.30;;;11.90;99.90;;;;;;4899739;29;20473;-67
2023/11/02 13:56:51;;;;;;;0.30;0.30;;;11.90;99.90;;;;;;4916570;29;20487;-67
2023/11/02 13:59:16;;;;;;;0.30;0.30;;;12.00;99.90;;;;;;4921153;29;20658;-67
2023/11/02 14:01:42;;;;;;;0.30;0.30;;;12.10;99.90;;;;;;4919426;29;20189;-69
2023/11/02 14:04:08;;;;;;;0.30;0.30;;;12.10;99.90;;;;;;4919640;29;20950;-70
2023/11/02 14:06:35;;;;;;;0.30;0.30;;;12.10;99.90;;;;;;4902609;29;20220;-68
2023/11/02 14:09:02;;;;;;;0.30;0.20;;;12.20;99.90;;;;;;4920270;29;20457;-67
2023/11/02 14:11:28;;;;;;;0.30;0.30;;;12.10;99.90;;;;;;4920082;29;20460;-64
2023/11/02 14:13:54;;;;;;;0.30;0.30;;;12.10;99.90;;;;;;4919156;29;20819;-66
2023/11/02 14:16:20;;;;;;;0.30;0.20;;;12.10;99.90;;;;;;4918957;29;20588;-69
2023/11/02 14:18:46;;;;;;;0.30;0.20;;;12.10;99.90;;;;;;4919452;29;20421;-68
2023/11/02 14:21:12;;;;;;;0.30;0.20;;;12.20;99.90;;;;;;4898850;29;20453;-65
2023/11/02 14:23:38;;;;;;;0.30;0.30;;;12.20;99.90;;;;;;4908520;29;20180;-65
2023/11/02 14:26:06;;;;;;;0.30;0.30;;;12.30;99.90;;;;;;4918852;29;20227;-66
2023/11/02 14:28:35;;;;;;;0.30;0.20;;;12.30;99.90;;;;;;4919575;29;20510;-68
2023/11/02 14:31:04;;;;;;;0.30;0.20;;;12.30;99.90;;;;;;4919670;29;20452;-65
2023/11/02 14:33:30;;;;;;;0.40;0.40;;;12.30;99.90;;;;;;4919641;29;20436;-67
2023/11/02 14:35:56;;;;;;;0.50;0.50;;;12.30;99.90;;;;;;4919322;29;20931;-67
2023/11/02 14:38:22;;;;;;;0.30;0.20;;;12.30;99.90;;;;;;4919328;29;20193;-65
2023/11/02 14:40:48;;;;;;;0.30;0.30;;;12.30;99.90;;;;;;4917936;29;20417;-62
2023/11/02 14:43:15;;;;;;;0.30;0.20;;;12.20;99.90;;;;;;4919671;29;20631;-62
2023/11/02 14:45:43;;;;;;;0.30;0.20;;;12.20;99.90;;;;;;4919139;29;20228;-66
2023/11/02 14:48:09;;;;;;;0.30;0.30;;;12.20;99.90;;;;;;4919007;29;20461;-65
2023/11/02 14:50:36;;;;;;;0.30;0.30;;;12.20;99.90;;;;;;4919306;29;20400;-68
2023/11/02 14:53:02;;;;;;;0.30;0.20;;;12.20;99.90;;;;;;4919545;29;20413;-64
2023/11/02 14:55:28;;;;;;;0.30;0.20;;;12.10;99.90;;;;;;4918961;29;20461;-65
2023/11/02 14:57:54;;;;;;;0.30;0.20;;;12.10;99.90;;;;;;4919215;29;20440;-64
2023/11/02 15:00:19;;;;;;;0.30;0.30;;;12.10;99.90;;;;;;4919501;29;20173;-68
2023/11/02 15:02:47;;;;;;;0.30;0.30;;;12.10;99.90;;;;;;4918982;29;20263;-65
2023/11/02 15:05:13;;;;;;;0.30;0.20;;;12.00;99.90;;;;;;4901878;29;20831;-65
2023/11/02 15:07:38;;;;;;;0.30;0.30;;;12.00;99.90;;;;;;4918905;29;20439;-66
2023/11/02 15:10:06;;;;;;;0.30;0.20;;;11.90;99.90;;;;;;4918351;29;20954;-65
2023/11/02 15:12:32;;;;;;;0.30;0.30;;;11.90;99.90;;;;;;4918838;29;20249;-67
2023/11/02 15:15:00;;;;;;;0.30;0.30;;;11.80;99.90;;;;;;4918492;29;20408;-67
2023/11/02 15:17:28;;;;;;;0.30;0.27;;;11.80;99.90;;;;;;4918813;29;20788;-66
2023/11/02 15:19:53;;;;;;;0.30;0.20;;;11.80;99.90;;;;;;4918551;29;20436;-63
2023/11/02 15:22:19;;;;;;;0.30;0.30;;;11.80;99.90;;;;;;4901785;29;20927;-69
2023/11/02 15:24:44;;;;;;;0.30;0.30;;;11.80;99.90;;;;;;4918435;29;20176;-68
2023/11/02 15:27:10;;;;;;;0.30;0.30;;;11.80;99.90;;;;;;4898114;29;20197;-67
2023/11/02 15:29:36;;;;;;;0.30;0.30;;;11.80;99.90;;;;;;4897819;29;20224;-66
2023/11/02 15:32:02;;;;;;;0.30;0.30;;;11.80;99.90;;;;;;4897306;29;20724;-68
2023/11/02 15:34:28;;;;;;;0.50;0.50;;;11.80;99.90;;;;;;4897575;29;20643;-68
2023/11/02 15:36:55;;;;;;;0.30;0.20;;;11.80;99.90;;;;;;4895921;29;20223;-69
2023/11/02 15:39:20;;;;;;;0.30;0.20;;;11.70;99.90;;;;;;4895534;29;20586;-66
2023/11/02 15:41:47;;;;;;;0.30;0.30;;;11.80;99.90;;;;;;4897691;29;20477;-65
2023/11/02 15:44:14;;;;;;;0.30;0.30;;;11.80;99.90;;;;;;4897283;29;20299;-68
2023/11/02 15:46:41;;;;;;;0.30;0.20;;;11.70;99.90;;;;;;4897409;29;20213;-66
2023/11/02 15:49:07;;;;;;;0.30;0.20;;;11.70;99.90;;;;;;4897541;29;20456;-68
2023/11/02 15:51:33;;;;;;;0.30;0.30;;;11.70;99.90;;;;;;4897550;29;20448;-66
2023/11/02 15:53:59;;;;;;;0.30;0.20;;;11.60;99.90;;;;;;4897131;29;20191;-67
2023/11/02 15:56:24;;;;;;;0.30;0.20;;;11.60;99.90;;;;;;4897623;29;20439;-67
2023/11/02 15:58:50;;;;;;;0.30;0.30;;;11.60;99.90;;;;;;4912123;29;20195;-70
2023/11/02 16:01:26;;;;;;;0.30;0.30;;;11.60;99.90;;;;;;4916345;29;20182;-67
2023/11/02 16:03:52;;;;;;;0.30;0.30;;;11.60;99.90;;;;;;4916290;29;20184;-69
2023/11/02 16:06:17;;;;;;;0.30;0.30;;;11.50;99.90;;;;;;4916231;29;20203;-66
2023/11/02 16:08:43;;;;;;;0.40;0.40;;;11.50;99.90;;;;;;4916439;29;20233;-66
2023/11/02 16:11:10;;;;;;;0.30;0.30;;;11.50;99.90;;;;;;4916407;29;20168;-68
2023/11/02 16:13:35;;;;;;;0.30;0.30;;;11.40;99.90;;;;;;4917420;29;20652;-68
2023/11/02 16:16:08;;;;;;;0.30;0.30;;;11.40;99.90;;;;;;4916975;29;20286;-66
2023/11/02 16:18:34;;;;;;;0.30;0.30;;;11.40;99.90;;;;;;4901147;29;20699;-65
2023/11/02 16:20:59;;;;;;;0.30;0.30;;;11.40;99.90;;;;;;4917883;29;20506;-68
2023/11/02 16:23:26;;;;;;;0.30;0.30;;;11.30;99.90;;;;;;4900509;29;20260;-67
2023/11/02 16:25:52;;;;;;;0.30;0.20;;;11.30;99.90;;;;;;4917287;29;20266;-67
2023/11/02 16:28:18;;;;;;;0.30;0.20;;;11.30;99.90;;;;;;4916370;29;20670;-69
2023/11/02 16:30:44;;;;;;;0.30;0.30;;;11.30;99.90;;;;;;4901000;29;20170;-67
2023/11/02 16:33:10;;;;;;;0.30;0.28;;;11.30;99.90;;;;;;4914175;29;20171;-68
2023/11/02 16:35:36;;;;;;;0.30;0.20;;;11.30;99.90;;;;;;4906531;29;20534;-68
2023/11/02 16:38:04;;;;;;;0.30;0.30;;;11.20;99.90;;;;;;4916365;29;20235;-70
2023/11/02 16:40:31;;;;;;;0.30;0.20;;;11.10;99.90;;;;;;4917666;29;20796;-68
2023/11/02 16:43:01;;;;;;;0.30;0.30;;;11.10;99.90;;;;;;4917406;29;20669;-66
2023/11/02 16:45:27;;;;;;;0.30;0.30;;;11.20;99.90;;;;;;4917071;29;20322;-64
2023/11/02 16:47:53;;;;;;;0.30;0.30;;;11.20;99.90;;;;;;4917591;29;20638;-65
2023/11/02 16:50:20;;;;;;;0.30;0.20;;;11.10;99.90;;;;;;4917041;29;20178;-67
2023/11/02 16:52:47;;;;;;;0.30;0.20;;;11.10;99.90;;;;;;4917393;29;20422;-66
2023/11/02 16:55:13;;;;;;;0.30;0.20;;;11.10;99.90;;;;;;4916681;29;20198;-69